sensor_id;sensor_type;location;lat;lon;timestamp;P1;durP1;ratioP1;P2;durP2;ratioP2
37275;SDS011;23166;51.150;21.620;2022-07-29T00:00:36;5.55;;;2.98;;
37275;SDS011;23166;51.150;21.620;2022-07-29T00:05:29;3.37;;;1.95;;
37275;SDS011;23166;51.150;21.620;2022-07-29T00:07:58;2.67;;;2.00;;
37275;SDS011;23166;51.150;21.620;2022-07-29T00:10:24;4.22;;;2.50;;
37275;SDS011;23166;51.150;21.620;2022-07-29T00:12:50;7.00;;;2.77;;
37275;SDS011;23166;51.150;21.620;2022-07-29T00:15:17;2.65;;;2.25;;
37275;SDS011;23166;51.150;21.620;2022-07-29T00:17:43;4.50;;;1.87;;
37275;SDS011;23166;51.150;21.620;2022-07-29T00:20:10;4.67;;;2.55;;
37275;SDS011;23166;51.150;21.620;2022-07-29T00:22:37;6.05;;;2.33;;
37275;SDS011;23166;51.150;21.620;2022-07-29T00:25:04;5.50;;;2.35;;
37275;SDS011;23166;51.150;21.620;2022-07-29T00:27:32;9.10;;;4.08;;
37275;SDS011;23166;51.150;21.620;2022-07-29T00:29:59;12.98;;;4.08;;
37275;SDS011;23166;51.150;21.620;2022-07-29T00:32:26;7.83;;;3.30;;
37275;SDS011;23166;51.150;21.620;2022-07-29T00:34:52;6.90;;;2.33;;
37275;SDS011;23166;51.150;21.620;2022-07-29T00:37:37;5.53;;;2.52;;
37275;SDS011;23166;51.150;21.620;2022-07-29T00:40:04;8.70;;;3.90;;
37275;SDS011;23166;51.150;21.620;2022-07-29T00:42:40;8.63;;;4.17;;
37275;SDS011;23166;51.150;21.620;2022-07-29T00:45:04;3.98;;;3.05;;
37275;SDS011;23166;51.150;21.620;2022-07-29T00:47:31;6.83;;;3.12;;
37275;SDS011;23166;51.150;21.620;2022-07-29T00:49:57;6.30;;;2.10;;
37275;SDS011;23166;51.150;21.620;2022-07-29T00:52:24;7.08;;;3.20;;
37275;SDS011;23166;51.150;21.620;2022-07-29T00:54:50;5.85;;;2.35;;
37275;SDS011;23166;51.150;21.620;2022-07-29T00:57:17;5.35;;;1.87;;
37275;SDS011;23166;51.150;21.620;2022-07-29T00:59:43;3.45;;;2.10;;
37275;SDS011;23166;51.150;21.620;2022-07-29T01:02:10;2.83;;;2.00;;
37275;SDS011;23166;51.150;21.620;2022-07-29T01:04:36;3.92;;;2.00;;
37275;SDS011;23166;51.150;21.620;2022-07-29T01:07:03;5.25;;;2.02;;
37275;SDS011;23166;51.150;21.620;2022-07-29T01:11:59;8.93;;;2.12;;
37275;SDS011;23166;51.150;21.620;2022-07-29T01:14:27;6.35;;;2.37;;
37275;SDS011;23166;51.150;21.620;2022-07-29T01:16:56;3.17;;;2.05;;
37275;SDS011;23166;51.150;21.620;2022-07-29T01:22:27;3.58;;;2.10;;
37275;SDS011;23166;51.150;21.620;2022-07-29T01:30:55;7.55;;;1.75;;
37275;SDS011;23166;51.150;21.620;2022-07-29T01:33:22;2.98;;;2.00;;
37275;SDS011;23166;51.150;21.620;2022-07-29T01:36:14;4.90;;;2.33;;
37275;SDS011;23166;51.150;21.620;2022-07-29T01:38:39;4.60;;;2.08;;
37275;SDS011;23166;51.150;21.620;2022-07-29T01:41:09;3.70;;;2.37;;
37275;SDS011;23166;51.150;21.620;2022-07-29T01:43:44;4.87;;;1.67;;
37275;SDS011;23166;51.150;21.620;2022-07-29T01:46:12;4.45;;;1.95;;
37275;SDS011;23166;51.150;21.620;2022-07-29T01:48:43;3.52;;;2.50;;
37275;SDS011;23166;51.150;21.620;2022-07-29T01:51:16;1.57;;;1.22;;
37275;SDS011;23166;51.150;21.620;2022-07-29T01:56:27;5.00;;;2.25;;
37275;SDS011;23166;51.150;21.620;2022-07-29T01:58:58;4.00;;;2.10;;
37275;SDS011;23166;51.150;21.620;2022-07-29T02:01:26;3.55;;;1.60;;
37275;SDS011;23166;51.150;21.620;2022-07-29T02:03:55;4.03;;;1.52;;
37275;SDS011;23166;51.150;21.620;2022-07-29T02:06:23;7.65;;;2.40;;
37275;SDS011;23166;51.150;21.620;2022-07-29T02:08:51;3.42;;;1.80;;
37275;SDS011;23166;51.150;21.620;2022-07-29T02:11:19;2.30;;;1.47;;
37275;SDS011;23166;51.150;21.620;2022-07-29T02:13:45;4.10;;;1.80;;
37275;SDS011;23166;51.150;21.620;2022-07-29T02:16:14;2.25;;;1.60;;
37275;SDS011;23166;51.150;21.620;2022-07-29T02:18:44;3.50;;;2.02;;
37275;SDS011;23166;51.150;21.620;2022-07-29T02:21:11;2.22;;;1.70;;
37275;SDS011;23166;51.150;21.620;2022-07-29T02:23:39;2.92;;;1.62;;
37275;SDS011;23166;51.150;21.620;2022-07-29T02:26:05;7.62;;;1.92;;
37275;SDS011;23166;51.150;21.620;2022-07-29T02:28:34;3.40;;;2.10;;
37275;SDS011;23166;51.150;21.620;2022-07-29T02:31:02;3.27;;;2.30;;
37275;SDS011;23166;51.150;21.620;2022-07-29T02:33:29;2.33;;;1.67;;
37275;SDS011;23166;51.150;21.620;2022-07-29T02:35:57;3.20;;;1.60;;
37275;SDS011;23166;51.150;21.620;2022-07-29T02:38:25;3.52;;;1.72;;
37275;SDS011;23166;51.150;21.620;2022-07-29T02:41:13;2.00;;;1.62;;
37275;SDS011;23166;51.150;21.620;2022-07-29T02:43:43;2.42;;;1.57;;
37275;SDS011;23166;51.150;21.620;2022-07-29T02:46:13;4.20;;;1.70;;
37275;SDS011;23166;51.150;21.620;2022-07-29T02:48:50;4.08;;;2.20;;
37275;SDS011;23166;51.150;21.620;2022-07-29T02:51:25;3.22;;;1.60;;
37275;SDS011;23166;51.150;21.620;2022-07-29T02:53:54;1.80;;;1.40;;
37275;SDS011;23166;51.150;21.620;2022-07-29T02:56:27;3.50;;;1.80;;
37275;SDS011;23166;51.150;21.620;2022-07-29T02:58:58;1.60;;;1.50;;
37275;SDS011;23166;51.150;21.620;2022-07-29T03:01:29;2.27;;;1.75;;
37275;SDS011;23166;51.150;21.620;2022-07-29T03:03:57;4.08;;;1.80;;
37275;SDS011;23166;51.150;21.620;2022-07-29T03:06:27;1.80;;;1.30;;
37275;SDS011;23166;51.150;21.620;2022-07-29T03:08:55;3.87;;;2.02;;
37275;SDS011;23166;51.150;21.620;2022-07-29T03:11:23;2.33;;;1.32;;
37275;SDS011;23166;51.150;21.620;2022-07-29T03:13:51;1.30;;;1.20;;
37275;SDS011;23166;51.150;21.620;2022-07-29T03:16:18;1.15;;;1.10;;
37275;SDS011;23166;51.150;21.620;2022-07-29T03:18:46;2.42;;;1.72;;
37275;SDS011;23166;51.150;21.620;2022-07-29T03:21:16;2.55;;;1.72;;
37275;SDS011;23166;51.150;21.620;2022-07-29T03:23:43;3.17;;;1.72;;
37275;SDS011;23166;51.150;21.620;2022-07-29T03:26:13;3.42;;;1.98;;
37275;SDS011;23166;51.150;21.620;2022-07-29T03:28:39;2.20;;;1.32;;
37275;SDS011;23166;51.150;21.620;2022-07-29T03:31:06;2.85;;;1.85;;
37275;SDS011;23166;51.150;21.620;2022-07-29T03:33:32;2.95;;;1.95;;
37275;SDS011;23166;51.150;21.620;2022-07-29T03:35:59;2.30;;;1.65;;
37275;SDS011;23166;51.150;21.620;2022-07-29T03:38:27;4.08;;;2.05;;
37275;SDS011;23166;51.150;21.620;2022-07-29T03:40:57;3.22;;;2.17;;
37275;SDS011;23166;51.150;21.620;2022-07-29T03:43:27;2.60;;;2.05;;
37275;SDS011;23166;51.150;21.620;2022-07-29T03:45:59;5.85;;;1.90;;
37275;SDS011;23166;51.150;21.620;2022-07-29T03:48:27;6.53;;;2.17;;
37275;SDS011;23166;51.150;21.620;2022-07-29T03:50:56;10.25;;;2.72;;
37275;SDS011;23166;51.150;21.620;2022-07-29T03:53:22;2.70;;;1.90;;
37275;SDS011;23166;51.150;21.620;2022-07-29T03:55:50;1.62;;;1.30;;
37275;SDS011;23166;51.150;21.620;2022-07-29T03:58:22;3.33;;;1.40;;
37275;SDS011;23166;51.150;21.620;2022-07-29T04:00:51;1.90;;;1.42;;
37275;SDS011;23166;51.150;21.620;2022-07-29T04:03:19;2.80;;;2.02;;
37275;SDS011;23166;51.150;21.620;2022-07-29T04:08:14;3.37;;;1.52;;
37275;SDS011;23166;51.150;21.620;2022-07-29T04:10:40;6.58;;;2.42;;
37275;SDS011;23166;51.150;21.620;2022-07-29T04:13:07;3.95;;;1.65;;
37275;SDS011;23166;51.150;21.620;2022-07-29T04:15:33;5.65;;;1.87;;
37275;SDS011;23166;51.150;21.620;2022-07-29T04:18:00;3.77;;;1.72;;
37275;SDS011;23166;51.150;21.620;2022-07-29T04:20:26;3.52;;;1.87;;
37275;SDS011;23166;51.150;21.620;2022-07-29T04:22:53;4.53;;;1.95;;
37275;SDS011;23166;51.150;21.620;2022-07-29T04:25:19;2.10;;;1.90;;
37275;SDS011;23166;51.150;21.620;2022-07-29T04:27:46;2.47;;;1.67;;
37275;SDS011;23166;51.150;21.620;2022-07-29T04:30:31;6.08;;;2.20;;
37275;SDS011;23166;51.150;21.620;2022-07-29T04:32:59;1.55;;;1.45;;
37275;SDS011;23166;51.150;21.620;2022-07-29T04:35:27;5.92;;;2.30;;
37275;SDS011;23166;51.150;21.620;2022-07-29T04:37:54;2.58;;;1.80;;
37275;SDS011;23166;51.150;21.620;2022-07-29T04:40:20;4.15;;;2.02;;
37275;SDS011;23166;51.150;21.620;2022-07-29T04:42:47;4.50;;;1.47;;
37275;SDS011;23166;51.150;21.620;2022-07-29T04:45:13;3.08;;;1.77;;
37275;SDS011;23166;51.150;21.620;2022-07-29T04:47:40;5.35;;;2.25;;
37275;SDS011;23166;51.150;21.620;2022-07-29T04:50:07;5.22;;;1.62;;
37275;SDS011;23166;51.150;21.620;2022-07-29T04:52:34;4.00;;;1.60;;
37275;SDS011;23166;51.150;21.620;2022-07-29T04:55:01;5.70;;;2.22;;
37275;SDS011;23166;51.150;21.620;2022-07-29T04:57:28;10.78;;;2.50;;
37275;SDS011;23166;51.150;21.620;2022-07-29T04:59:55;2.17;;;1.98;;
37275;SDS011;23166;51.150;21.620;2022-07-29T05:02:21;3.37;;;1.77;;
37275;SDS011;23166;51.150;21.620;2022-07-29T05:04:48;3.83;;;1.77;;
37275;SDS011;23166;51.150;21.620;2022-07-29T05:07:14;2.92;;;2.08;;
37275;SDS011;23166;51.150;21.620;2022-07-29T05:09:41;3.50;;;1.70;;
37275;SDS011;23166;51.150;21.620;2022-07-29T05:12:07;6.45;;;2.17;;
37275;SDS011;23166;51.150;21.620;2022-07-29T05:14:35;2.10;;;1.72;;
37275;SDS011;23166;51.150;21.620;2022-07-29T05:17:01;4.05;;;1.50;;
37275;SDS011;23166;51.150;21.620;2022-07-29T05:19:28;3.20;;;1.77;;
37275;SDS011;23166;51.150;21.620;2022-07-29T05:21:54;3.87;;;1.40;;
37275;SDS011;23166;51.150;21.620;2022-07-29T05:24:20;2.60;;;1.20;;
37275;SDS011;23166;51.150;21.620;2022-07-29T05:26:47;2.98;;;2.27;;
37275;SDS011;23166;51.150;21.620;2022-07-29T05:29:13;9.78;;;2.08;;
37275;SDS011;23166;51.150;21.620;2022-07-29T05:31:39;4.83;;;1.85;;
37275;SDS011;23166;51.150;21.620;2022-07-29T05:36:52;2.40;;;1.22;;
37275;SDS011;23166;51.150;21.620;2022-07-29T05:39:19;3.17;;;1.65;;
37275;SDS011;23166;51.150;21.620;2022-07-29T05:41:46;2.65;;;1.50;;
37275;SDS011;23166;51.150;21.620;2022-07-29T05:44:12;5.92;;;1.55;;
37275;SDS011;23166;51.150;21.620;2022-07-29T05:46:39;4.37;;;1.50;;
37275;SDS011;23166;51.150;21.620;2022-07-29T05:49:05;2.42;;;1.70;;
37275;SDS011;23166;51.150;21.620;2022-07-29T05:53:59;4.80;;;1.32;;
37275;SDS011;23166;51.150;21.620;2022-07-29T05:56:25;2.60;;;1.10;;
37275;SDS011;23166;51.150;21.620;2022-07-29T05:58:52;1.42;;;1.00;;
37275;SDS011;23166;51.150;21.620;2022-07-29T06:01:18;4.78;;;1.12;;
37275;SDS011;23166;51.150;21.620;2022-07-29T06:03:45;2.55;;;1.20;;
37275;SDS011;23166;51.150;21.620;2022-07-29T06:06:11;2.37;;;1.30;;
37275;SDS011;23166;51.150;21.620;2022-07-29T06:08:41;3.15;;;1.25;;
37275;SDS011;23166;51.150;21.620;2022-07-29T06:11:19;0.78;;;0.78;;
37275;SDS011;23166;51.150;21.620;2022-07-29T06:13:51;3.70;;;1.30;;
37275;SDS011;23166;51.150;21.620;2022-07-29T06:16:18;2.15;;;1.77;;
37275;SDS011;23166;51.150;21.620;2022-07-29T06:18:46;5.70;;;1.02;;
37275;SDS011;23166;51.150;21.620;2022-07-29T06:21:12;1.45;;;1.35;;
37275;SDS011;23166;51.150;21.620;2022-07-29T06:23:41;1.62;;;0.88;;
37275;SDS011;23166;51.150;21.620;2022-07-29T06:26:37;2.95;;;0.90;;
37275;SDS011;23166;51.150;21.620;2022-07-29T06:29:04;1.62;;;1.05;;
37275;SDS011;23166;51.150;21.620;2022-07-29T06:33:57;0.95;;;0.95;;
37275;SDS011;23166;51.150;21.620;2022-07-29T06:36:23;2.52;;;1.10;;
37275;SDS011;23166;51.150;21.620;2022-07-29T06:38:50;0.85;;;0.70;;
37275;SDS011;23166;51.150;21.620;2022-07-29T06:41:17;3.17;;;0.72;;
37275;SDS011;23166;51.150;21.620;2022-07-29T06:43:43;1.70;;;0.62;;
37275;SDS011;23166;51.150;21.620;2022-07-29T06:46:12;2.65;;;1.00;;
37275;SDS011;23166;51.150;21.620;2022-07-29T06:48:41;1.30;;;0.78;;
37275;SDS011;23166;51.150;21.620;2022-07-29T06:51:09;0.88;;;0.88;;
37275;SDS011;23166;51.150;21.620;2022-07-29T06:53:37;1.10;;;0.78;;
37275;SDS011;23166;51.150;21.620;2022-07-29T06:56:05;2.85;;;0.80;;
37275;SDS011;23166;51.150;21.620;2022-07-29T06:58:35;1.85;;;0.80;;
37275;SDS011;23166;51.150;21.620;2022-07-29T07:01:03;6.17;;;0.80;;
37275;SDS011;23166;51.150;21.620;2022-07-29T07:03:30;0.60;;;0.60;;
37275;SDS011;23166;51.150;21.620;2022-07-29T07:05:57;1.27;;;0.70;;
37275;SDS011;23166;51.150;21.620;2022-07-29T07:08:24;1.42;;;0.90;;
37275;SDS011;23166;51.150;21.620;2022-07-29T07:10:50;1.15;;;0.88;;
37275;SDS011;23166;51.150;21.620;2022-07-29T07:15:44;1.80;;;0.88;;
37275;SDS011;23166;51.150;21.620;2022-07-29T07:18:11;0.57;;;0.47;;
37275;SDS011;23166;51.150;21.620;2022-07-29T07:20:37;2.90;;;1.17;;
37275;SDS011;23166;51.150;21.620;2022-07-29T07:23:03;2.72;;;1.37;;
37275;SDS011;23166;51.150;21.620;2022-07-29T07:25:30;0.60;;;0.60;;
37275;SDS011;23166;51.150;21.620;2022-07-29T07:27:56;0.68;;;0.60;;
37275;SDS011;23166;51.150;21.620;2022-07-29T07:30:23;0.90;;;0.68;;
37275;SDS011;23166;51.150;21.620;2022-07-29T07:32:49;2.08;;;0.90;;
37275;SDS011;23166;51.150;21.620;2022-07-29T07:35:16;2.08;;;0.85;;
37275;SDS011;23166;51.150;21.620;2022-07-29T07:37:43;1.02;;;0.60;;
37275;SDS011;23166;51.150;21.620;2022-07-29T07:40:10;0.33;;;0.33;;
37275;SDS011;23166;51.150;21.620;2022-07-29T07:42:38;0.53;;;0.53;;
37275;SDS011;23166;51.150;21.620;2022-07-29T07:45:05;1.52;;;0.68;;
37275;SDS011;23166;51.150;21.620;2022-07-29T07:47:32;1.12;;;0.75;;
37275;SDS011;23166;51.150;21.620;2022-07-29T07:49:58;1.40;;;0.55;;
37275;SDS011;23166;51.150;21.620;2022-07-29T07:52:25;1.20;;;0.68;;
37275;SDS011;23166;51.150;21.620;2022-07-29T07:54:52;1.70;;;0.70;;
37275;SDS011;23166;51.150;21.620;2022-07-29T07:57:18;9.90;;;1.07;;
37275;SDS011;23166;51.150;21.620;2022-07-29T07:59:45;0.75;;;0.42;;
37275;SDS011;23166;51.150;21.620;2022-07-29T08:02:11;1.07;;;0.75;;
37275;SDS011;23166;51.150;21.620;2022-07-29T08:04:37;4.55;;;0.75;;
37275;SDS011;23166;51.150;21.620;2022-07-29T08:07:06;0.98;;;0.50;;
37275;SDS011;23166;51.150;21.620;2022-07-29T08:09:33;1.47;;;0.60;;
37275;SDS011;23166;51.150;21.620;2022-07-29T08:12:00;0.50;;;0.47;;
37275;SDS011;23166;51.150;21.620;2022-07-29T08:14:29;1.45;;;0.88;;
37275;SDS011;23166;51.150;21.620;2022-07-29T08:16:56;3.92;;;0.85;;
37275;SDS011;23166;51.150;21.620;2022-07-29T08:19:22;0.72;;;0.30;;
37275;SDS011;23166;51.150;21.620;2022-07-29T08:21:49;0.35;;;0.33;;
37275;SDS011;23166;51.150;21.620;2022-07-29T08:24:15;0.30;;;0.30;;
37275;SDS011;23166;51.150;21.620;2022-07-29T08:27:01;1.50;;;0.40;;
37275;SDS011;23166;51.150;21.620;2022-07-29T08:29:27;0.82;;;0.47;;
37275;SDS011;23166;51.150;21.620;2022-07-29T08:31:53;0.85;;;0.60;;
37275;SDS011;23166;51.150;21.620;2022-07-29T08:34:20;0.98;;;0.70;;
37275;SDS011;23166;51.150;21.620;2022-07-29T08:36:46;0.95;;;0.40;;
37275;SDS011;23166;51.150;21.620;2022-07-29T08:39:13;4.55;;;0.60;;
37275;SDS011;23166;51.150;21.620;2022-07-29T08:41:39;0.40;;;0.40;;
37275;SDS011;23166;51.150;21.620;2022-07-29T08:44:06;1.42;;;0.50;;
37275;SDS011;23166;51.150;21.620;2022-07-29T08:46:32;2.55;;;0.70;;
37275;SDS011;23166;51.150;21.620;2022-07-29T08:48:59;4.37;;;1.37;;
37275;SDS011;23166;51.150;21.620;2022-07-29T08:51:25;0.23;;;0.20;;
37275;SDS011;23166;51.150;21.620;2022-07-29T08:53:53;0.40;;;0.40;;
37275;SDS011;23166;51.150;21.620;2022-07-29T08:56:22;0.70;;;0.60;;
37275;SDS011;23166;51.150;21.620;2022-07-29T09:01:16;2.37;;;0.45;;
37275;SDS011;23166;51.150;21.620;2022-07-29T09:03:45;1.25;;;0.50;;
37275;SDS011;23166;51.150;21.620;2022-07-29T09:06:15;1.02;;;0.78;;
37275;SDS011;23166;51.150;21.620;2022-07-29T09:08:44;4.53;;;0.25;;
37275;SDS011;23166;51.150;21.620;2022-07-29T09:11:11;3.47;;;1.05;;
37275;SDS011;23166;51.150;21.620;2022-07-29T09:13:39;0.60;;;0.60;;
37275;SDS011;23166;51.150;21.620;2022-07-29T09:16:06;0.85;;;0.40;;
37275;SDS011;23166;51.150;21.620;2022-07-29T09:18:34;1.50;;;0.57;;
37275;SDS011;23166;51.150;21.620;2022-07-29T09:21:02;1.82;;;0.60;;
37275;SDS011;23166;51.150;21.620;2022-07-29T09:26:38;2.83;;;0.78;;
37275;SDS011;23166;51.150;21.620;2022-07-29T09:29:13;0.78;;;0.55;;
37275;SDS011;23166;51.150;21.620;2022-07-29T09:31:39;0.82;;;0.60;;
37275;SDS011;23166;51.150;21.620;2022-07-29T09:34:07;0.95;;;0.75;;
37275;SDS011;23166;51.150;21.620;2022-07-29T09:36:38;1.07;;;0.80;;
37275;SDS011;23166;51.150;21.620;2022-07-29T09:39:13;0.35;;;0.35;;
37275;SDS011;23166;51.150;21.620;2022-07-29T09:41:44;2.35;;;0.90;;
37275;SDS011;23166;51.150;21.620;2022-07-29T09:44:12;0.40;;;0.40;;
37275;SDS011;23166;51.150;21.620;2022-07-29T09:46:40;2.25;;;1.05;;
37275;SDS011;23166;51.150;21.620;2022-07-29T09:49:22;1.27;;;0.72;;
37275;SDS011;23166;51.150;21.620;2022-07-29T09:51:58;2.55;;;0.70;;
37275;SDS011;23166;51.150;21.620;2022-07-29T09:54:31;0.50;;;0.50;;
37275;SDS011;23166;51.150;21.620;2022-07-29T09:57:02;0.85;;;0.50;;
37275;SDS011;23166;51.150;21.620;2022-07-29T09:59:30;1.20;;;0.70;;
37275;SDS011;23166;51.150;21.620;2022-07-29T10:01:57;2.70;;;1.40;;
37275;SDS011;23166;51.150;21.620;2022-07-29T10:04:23;6.47;;;1.37;;
37275;SDS011;23166;51.150;21.620;2022-07-29T10:07:02;0.30;;;0.30;;
37275;SDS011;23166;51.150;21.620;2022-07-29T10:09:31;5.15;;;0.75;;
37275;SDS011;23166;51.150;21.620;2022-07-29T10:12:12;1.45;;;0.40;;
37275;SDS011;23166;51.150;21.620;2022-07-29T10:14:41;1.72;;;0.70;;
37275;SDS011;23166;51.150;21.620;2022-07-29T10:17:09;0.57;;;0.50;;
37275;SDS011;23166;51.150;21.620;2022-07-29T10:19:37;2.22;;;0.82;;
37275;SDS011;23166;51.150;21.620;2022-07-29T10:22:05;2.72;;;0.80;;
37275;SDS011;23166;51.150;21.620;2022-07-29T10:24:33;0.60;;;0.60;;
37275;SDS011;23166;51.150;21.620;2022-07-29T10:27:02;1.45;;;0.75;;
37275;SDS011;23166;51.150;21.620;2022-07-29T10:29:30;0.70;;;0.55;;
37275;SDS011;23166;51.150;21.620;2022-07-29T10:38:02;3.58;;;1.02;;
37275;SDS011;23166;51.150;21.620;2022-07-29T10:43:46;1.30;;;0.62;;
37275;SDS011;23166;51.150;21.620;2022-07-29T10:46:14;4.25;;;0.65;;
37275;SDS011;23166;51.150;21.620;2022-07-29T10:51:26;0.70;;;0.70;;
37275;SDS011;23166;51.150;21.620;2022-07-29T10:53:56;0.68;;;0.50;;
37275;SDS011;23166;51.150;21.620;2022-07-29T10:56:28;0.70;;;0.70;;
37275;SDS011;23166;51.150;21.620;2022-07-29T10:59:38;1.85;;;0.60;;
37275;SDS011;23166;51.150;21.620;2022-07-29T11:01:46;0.90;;;0.60;;
37275;SDS011;23166;51.150;21.620;2022-07-29T11:04:15;0.70;;;0.50;;
37275;SDS011;23166;51.150;21.620;2022-07-29T11:09:33;1.05;;;0.65;;
37275;SDS011;23166;51.150;21.620;2022-07-29T11:12:00;1.25;;;0.55;;
37275;SDS011;23166;51.150;21.620;2022-07-29T11:17:21;1.62;;;0.68;;
37275;SDS011;23166;51.150;21.620;2022-07-29T11:19:48;1.22;;;0.60;;
37275;SDS011;23166;51.150;21.620;2022-07-29T11:22:35;1.52;;;0.80;;
37275;SDS011;23166;51.150;21.620;2022-07-29T11:25:15;2.00;;;0.60;;
37275;SDS011;23166;51.150;21.620;2022-07-29T11:27:43;0.60;;;0.60;;
37275;SDS011;23166;51.150;21.620;2022-07-29T11:30:10;2.77;;;0.95;;
37275;SDS011;23166;51.150;21.620;2022-07-29T11:32:41;0.33;;;0.33;;
37275;SDS011;23166;51.150;21.620;2022-07-29T11:35:19;2.15;;;0.80;;
37275;SDS011;23166;51.150;21.620;2022-07-29T11:38:34;3.25;;;0.57;;
37275;SDS011;23166;51.150;21.620;2022-07-29T11:40:35;0.93;;;0.88;;
37275;SDS011;23166;51.150;21.620;2022-07-29T11:43:01;1.70;;;1.02;;
37275;SDS011;23166;51.150;21.620;2022-07-29T11:45:44;1.17;;;0.72;;
37275;SDS011;23166;51.150;21.620;2022-07-29T11:47:58;2.85;;;0.57;;
37275;SDS011;23166;51.150;21.620;2022-07-29T11:50:35;0.35;;;0.30;;
37275;SDS011;23166;51.150;21.620;2022-07-29T11:52:56;3.65;;;1.12;;
37275;SDS011;23166;51.150;21.620;2022-07-29T11:55:23;0.50;;;0.50;;
37275;SDS011;23166;51.150;21.620;2022-07-29T12:00:22;4.58;;;0.50;;
37275;SDS011;23166;51.150;21.620;2022-07-29T12:02:51;0.65;;;0.65;;
37275;SDS011;23166;51.150;21.620;2022-07-29T12:05:17;0.88;;;0.68;;
37275;SDS011;23166;51.150;21.620;2022-07-29T12:07:45;1.37;;;0.60;;
37275;SDS011;23166;51.150;21.620;2022-07-29T12:10:12;3.20;;;1.20;;
37275;SDS011;23166;51.150;21.620;2022-07-29T12:12:38;0.72;;;0.70;;
37275;SDS011;23166;51.150;21.620;2022-07-29T12:15:16;1.67;;;0.88;;
37275;SDS011;23166;51.150;21.620;2022-07-29T12:17:40;1.90;;;0.53;;
37275;SDS011;23166;51.150;21.620;2022-07-29T12:20:07;0.98;;;0.93;;
37275;SDS011;23166;51.150;21.620;2022-07-29T12:25:03;1.60;;;1.22;;
37275;SDS011;23166;51.150;21.620;2022-07-29T12:27:31;0.98;;;0.70;;
37275;SDS011;23166;51.150;21.620;2022-07-29T12:29:59;3.75;;;1.00;;
37275;SDS011;23166;51.150;21.620;2022-07-29T12:35:09;1.00;;;0.95;;
37275;SDS011;23166;51.150;21.620;2022-07-29T12:37:40;3.83;;;0.80;;
37275;SDS011;23166;51.150;21.620;2022-07-29T12:40:09;1.42;;;0.75;;
37275;SDS011;23166;51.150;21.620;2022-07-29T12:42:38;0.80;;;0.80;;
37275;SDS011;23166;51.150;21.620;2022-07-29T12:45:05;3.08;;;0.90;;
37275;SDS011;23166;51.150;21.620;2022-07-29T12:47:33;3.55;;;1.17;;
37275;SDS011;23166;51.150;21.620;2022-07-29T12:50:12;1.12;;;1.07;;
37275;SDS011;23166;51.150;21.620;2022-07-29T12:52:37;1.85;;;0.68;;
37275;SDS011;23166;51.150;21.620;2022-07-29T12:55:03;1.00;;;0.90;;
37275;SDS011;23166;51.150;21.620;2022-07-29T12:57:31;3.12;;;1.00;;
37275;SDS011;23166;51.150;21.620;2022-07-29T13:02:28;0.82;;;0.80;;
37275;SDS011;23166;51.150;21.620;2022-07-29T13:04:59;0.88;;;0.70;;
37275;SDS011;23166;51.150;21.620;2022-07-29T13:07:27;0.98;;;0.78;;
37275;SDS011;23166;51.150;21.620;2022-07-29T13:10:09;1.60;;;0.80;;
37275;SDS011;23166;51.150;21.620;2022-07-29T13:15:31;1.72;;;1.25;;
37275;SDS011;23166;51.150;21.620;2022-07-29T13:17:58;4.33;;;1.22;;
37275;SDS011;23166;51.150;21.620;2022-07-29T13:22:54;2.15;;;1.20;;
37275;SDS011;23166;51.150;21.620;2022-07-29T13:25:28;0.72;;;0.72;;
37275;SDS011;23166;51.150;21.620;2022-07-29T13:27:58;3.02;;;1.32;;
37275;SDS011;23166;51.150;21.620;2022-07-29T13:30:25;4.85;;;1.10;;
37275;SDS011;23166;51.150;21.620;2022-07-29T13:32:52;1.65;;;0.98;;
37275;SDS011;23166;51.150;21.620;2022-07-29T13:37:45;1.25;;;1.00;;
37275;SDS011;23166;51.150;21.620;2022-07-29T13:40:12;2.62;;;1.25;;
37275;SDS011;23166;51.150;21.620;2022-07-29T13:42:39;1.35;;;0.90;;
37275;SDS011;23166;51.150;21.620;2022-07-29T13:45:07;6.50;;;1.55;;
37275;SDS011;23166;51.150;21.620;2022-07-29T13:47:34;1.72;;;1.10;;
37275;SDS011;23166;51.150;21.620;2022-07-29T13:50:01;3.25;;;1.60;;
37275;SDS011;23166;51.150;21.620;2022-07-29T13:54:54;1.52;;;1.05;;
37275;SDS011;23166;51.150;21.620;2022-07-29T13:57:20;0.95;;;0.80;;
37275;SDS011;23166;51.150;21.620;2022-07-29T13:59:46;2.30;;;0.93;;
37275;SDS011;23166;51.150;21.620;2022-07-29T14:02:13;1.42;;;0.95;;
37275;SDS011;23166;51.150;21.620;2022-07-29T14:04:39;1.32;;;1.22;;
37275;SDS011;23166;51.150;21.620;2022-07-29T14:07:06;2.72;;;1.32;;
37275;SDS011;23166;51.150;21.620;2022-07-29T14:09:32;2.25;;;1.25;;
37275;SDS011;23166;51.150;21.620;2022-07-29T14:11:59;2.33;;;1.60;;
37275;SDS011;23166;51.150;21.620;2022-07-29T14:14:25;5.72;;;1.75;;
37275;SDS011;23166;51.150;21.620;2022-07-29T14:16:51;2.02;;;1.00;;
37275;SDS011;23166;51.150;21.620;2022-07-29T14:19:18;1.27;;;1.15;;
37275;SDS011;23166;51.150;21.620;2022-07-29T14:21:45;1.25;;;1.15;;
37275;SDS011;23166;51.150;21.620;2022-07-29T14:24:11;1.57;;;1.35;;
37275;SDS011;23166;51.150;21.620;2022-07-29T14:26:38;2.47;;;1.27;;
37275;SDS011;23166;51.150;21.620;2022-07-29T14:29:04;1.70;;;1.22;;
37275;SDS011;23166;51.150;21.620;2022-07-29T14:31:31;4.40;;;1.25;;
37275;SDS011;23166;51.150;21.620;2022-07-29T14:33:57;2.20;;;1.42;;
37275;SDS011;23166;51.150;21.620;2022-07-29T14:36:23;3.92;;;1.32;;
37275;SDS011;23166;51.150;21.620;2022-07-29T14:38:50;2.15;;;1.20;;
37275;SDS011;23166;51.150;21.620;2022-07-29T14:41:16;1.40;;;1.27;;
37275;SDS011;23166;51.150;21.620;2022-07-29T14:43:43;3.98;;;1.40;;
37275;SDS011;23166;51.150;21.620;2022-07-29T14:46:09;3.67;;;1.27;;
37275;SDS011;23166;51.150;21.620;2022-07-29T14:48:35;1.72;;;1.55;;
37275;SDS011;23166;51.150;21.620;2022-07-29T14:51:02;0.90;;;0.80;;
37275;SDS011;23166;51.150;21.620;2022-07-29T14:53:28;7.80;;;1.95;;
37275;SDS011;23166;51.150;21.620;2022-07-29T14:55:55;0.93;;;0.90;;
37275;SDS011;23166;51.150;21.620;2022-07-29T14:58:21;2.98;;;1.98;;
37275;SDS011;23166;51.150;21.620;2022-07-29T15:00:48;1.27;;;1.17;;
37275;SDS011;23166;51.150;21.620;2022-07-29T15:03:17;3.35;;;1.00;;
37275;SDS011;23166;51.150;21.620;2022-07-29T15:05:48;1.87;;;1.47;;
37275;SDS011;23166;51.150;21.620;2022-07-29T15:08:14;2.65;;;1.25;;
37275;SDS011;23166;51.150;21.620;2022-07-29T15:10:41;1.50;;;1.10;;
37275;SDS011;23166;51.150;21.620;2022-07-29T15:13:07;1.12;;;1.02;;
37275;SDS011;23166;51.150;21.620;2022-07-29T15:15:34;0.70;;;0.70;;
37275;SDS011;23166;51.150;21.620;2022-07-29T15:18:00;1.30;;;1.10;;
37275;SDS011;23166;51.150;21.620;2022-07-29T15:20:26;1.35;;;1.07;;
37275;SDS011;23166;51.150;21.620;2022-07-29T15:22:53;1.10;;;0.80;;
37275;SDS011;23166;51.150;21.620;2022-07-29T15:25:25;3.15;;;0.93;;
37275;SDS011;23166;51.150;21.620;2022-07-29T15:27:50;6.40;;;1.40;;
37275;SDS011;23166;51.150;21.620;2022-07-29T15:30:16;0.78;;;0.68;;
37275;SDS011;23166;51.150;21.620;2022-07-29T15:32:43;3.00;;;1.70;;
37275;SDS011;23166;51.150;21.620;2022-07-29T15:35:09;1.65;;;0.60;;
37275;SDS011;23166;51.150;21.620;2022-07-29T15:37:37;1.05;;;0.95;;
37275;SDS011;23166;51.150;21.620;2022-07-29T15:40:04;1.12;;;0.65;;
37275;SDS011;23166;51.150;21.620;2022-07-29T15:42:31;1.20;;;0.50;;
37275;SDS011;23166;51.150;21.620;2022-07-29T15:44:58;1.32;;;0.82;;
37275;SDS011;23166;51.150;21.620;2022-07-29T15:47:28;2.10;;;0.70;;
37275;SDS011;23166;51.150;21.620;2022-07-29T15:49:55;0.60;;;0.60;;
37275;SDS011;23166;51.150;21.620;2022-07-29T15:52:22;1.87;;;0.72;;